YM Eternity — A8OS6 — position and weather

sailwx.info

Track history (hours):
 
Tides and Currents Weather Stations Pressure Air Temp Water Temp Dewpoint Dewpoint Depression Visibility Wind Speed Wind Dir Waves Ship Positions

YM Eternity

Last reported at 2017-Dec-18 11:00 UTC. Time now 2017-Dec-18 11:09 UTC.
Position N 37°16' W 122°40'.

Length 269 m; draft 10.9 m.

Type: Cargo ship. MMSI: 636013699.

Date/timePositionNaut miles runAvg speedWind from/ knotsBaromVisibWave heightAir tempDewpointWater temp
2017-Dec-18 11:00N 37°16' W 122°40'816.3
2017-Dec-18 10:30N 37°08' W 122°38'816.5
2017-Dec-18 10:00N 37°00' W 122°36'816.6
2017-Dec-18 09:30N 36°52' W 122°33'816.8
2017-Dec-18 09:00N 36°44' W 122°29'816.8
2017-Dec-18 08:30N 36°36' W 122°26'816.9
2017-Dec-18 08:00N 36°29' W 122°22'817.0
2017-Dec-18 07:30N 36°21' W 122°18'816.9
2017-Dec-18 07:00N 36°13' W 122°14'917.1
2017-Dec-18 06:30N 36°05' W 122°09'816.9
2017-Dec-18 06:00N 35°57' W 122°05'816.9
2017-Dec-18 05:30N 35°50' W 121°59'816.8
2017-Dec-18 05:00N 35°43' W 121°54'816.7
2017-Dec-18 04:30N 35°36' W 121°48'917.1
2017-Dec-18 04:00N 35°29' W 121°42'917.0
2017-Dec-18 03:30N 35°22' W 121°37'917.1
2017-Dec-18 03:00N 35°15' W 121°31'816.7
2017-Dec-18 02:30N 35°08' W 121°25'816.8
2017-Dec-18 02:00N 35°01' W 121°20'816.6
2017-Dec-18 01:30N 34°54' W 121°14'816.8
2017-Dec-18 01:00N 34°47' W 121°09'816.7
2017-Dec-18 00:30N 34°40' W 121°03'816.3
2017-Dec-17 23:59N 34°33' W 120°57'816.6
2017-Dec-17 23:30N 34°26' W 120°51'816.3
2017-Dec-17 22:59N 34°24' W 120°42'816.3
2017-Dec-17 22:30N 34°22' W 120°32'816.4
2017-Dec-17 21:59N 34°19' W 120°23'817.1
2017-Dec-17 21:30N 34°17' W 120°13'817.2
2017-Dec-17 21:00N 34°15' W 120°03'917.4
2017-Dec-17 20:28N 34°12' W 119°52'817.9
2017-Dec-17 20:00N 34°10' W 119°42'1018.7
2017-Dec-17 19:29N 34°08' W 119°31'1018.7
2017-Dec-17 18:57N 34°05' W 119°20'918.3
2017-Dec-17 18:27N 34°01' W 119°09'817.1
2017-Dec-17 18:00N 33°57' W 119°01'611.8
2017-Dec-17 17:30N 33°55' W 118°55'611.9
2017-Dec-17 17:00N 33°52' W 118°49'611.7
2017-Dec-17 16:30N 33°49' W 118°43'611.8
2017-Dec-17 16:00N 33°46' W 118°37'611.7
2017-Dec-17 15:30N 33°43' W 118°30'611.7
2017-Dec-17 15:00N 33°40' W 118°24'611.6
2017-Dec-17 14:30N 33°38' W 118°18'7 0.3
2017-Dec-16 14:33N 33°46' W 118°17'0 0.0
2017-Dec-16 13:45N 33°46' W 118°17'0 0.0
2017-Dec-16 13:28N 33°46' W 118°17'0 0.0
2017-Dec-16 11:06N 33°46' W 118°17'0 0.1
2017-Dec-16 11:00N 33°46' W 118°17'0 0.0
2017-Dec-16 10:27N 33°46' W 118°17'0 0.0
2017-Dec-16 10:00N 33°46' W 118°17'0 0.0
2017-Dec-16 09:27N 33°46' W 118°17'0 0.0
2017-Dec-16 08:57N 33°46' W 118°17'0 0.0
2017-Dec-16 08:30N 33°46' W 118°17'0 0.0
2017-Dec-16 08:00N 33°46' W 118°17'0 0.0
2017-Dec-16 07:30N 33°46' W 118°17'0 0.0
2017-Dec-16 07:00N 33°46' W 118°17'0 0.0
2017-Dec-16 06:30N 33°46' W 118°17'0 0.0
2017-Dec-16 06:00N 33°46' W 118°17'0 0.0
2017-Dec-16 05:30N 33°46' W 118°17'0 0.0
2017-Dec-16 02:21N 33°46' W 118°17'0 0.0
2017-Dec-16 01:48N 33°46' W 118°17'0 0.0
2017-Dec-16 01:30N 33°46' W 118°17'0 0.0
2017-Dec-15 20:57N 33°46' W 118°17'0 0.0
2017-Dec-15 20:21N 33°46' W 118°17'0 0.0
2017-Dec-15 19:58N 33°46' W 118°17'0 0.0
2017-Dec-15 19:21N 33°46' W 118°17'0 0.0
2017-Dec-15 18:51N 33°46' W 118°17'0 0.0
2017-Dec-15 17:04N 33°46' W 118°17'0 0.0
2017-Dec-15 16:57N 33°46' W 118°17'0 0.0
2017-Dec-15 16:21N 33°46' W 118°17'0 0.0
2017-Dec-15 15:51N 33°46' W 118°17'0 0.0
2017-Dec-15 15:27N 33°46' W 118°17'0 0.0
2017-Dec-15 14:57N 33°46' W 118°17'0 0.0
2017-Dec-15 14:21N 33°46' W 118°17'0 0.0
2017-Dec-15 13:57N 33°46' W 118°17'0 0.0
2017-Dec-15 13:28N 33°46' W 118°17'0 0.0
2017-Dec-15 12:45N 33°46' W 118°17'0 0.0
2017-Dec-15 06:04N 33°46' W 118°17'0 0.0
2017-Dec-15 05:51N 33°46' W 118°17'0 0.0
2017-Dec-15 05:27N 33°46' W 118°17'0 0.0
2017-Dec-15 05:00N 33°46' W 118°17'0 0.0
2017-Dec-15 04:30N 33°46' W 118°17'0 0.0
2017-Dec-15 03:54N 33°46' W 118°17'0 0.0
2017-Dec-15 00:57N 33°46' W 118°17'0 0.0
2017-Dec-14 14:15N 33°46' W 118°17'0 0.0
2017-Dec-14 13:45N 33°46' W 118°17'0 0.0
2017-Dec-14 13:30N 33°46' W 118°17'0 0.0
2017-Dec-14 13:00N 33°46' W 118°17'0 0.0
2017-Dec-14 12:30N 33°46' W 118°17'0 0.0
2017-Dec-14 12:00N 33°46' W 118°17'0 0.0
2017-Dec-14 11:30N 33°46' W 118°17'0 0.0
2017-Dec-14 10:57N 33°46' W 118°17'0 0.0
2017-Dec-14 10:30N 33°46' W 118°17'0 0.0
2017-Dec-14 10:00N 33°46' W 118°17'0 0.0
2017-Dec-14 09:30N 33°46' W 118°17'0 0.0
2017-Dec-14 09:00N 33°46' W 118°17'0 0.0
2017-Dec-14 08:30N 33°46' W 118°17'0 0.0
2017-Dec-14 08:00N 33°46' W 118°17'0 0.0
2017-Dec-14 07:27N 33°46' W 118°17'0 0.0
2017-Dec-14 06:09N 33°46' W 118°17'0 0.0
2017-Dec-14 05:57N 33°46' W 118°17'0 0.0
2017-Dec-14 05:24N 33°46' W 118°17'0 0.0
2017-Dec-14 05:00N 33°46' W 118°17'0 0.0
2017-Dec-13 22:52N 33°46' W 118°17'1 3.5
2017-Dec-13 22:27N 33°44' W 118°17'3 5.9
2017-Dec-13 22:00N 33°42' W 118°15'4 7.6
2017-Dec-13 21:30N 33°38' W 118°16'5 9.6
2017-Dec-13 21:00N 33°36' W 118°21'511.0
2017-Dec-13 20:30N 33°36' W 118°27'510.9
2017-Dec-13 20:00N 33°36' W 118°34'510.8
2017-Dec-13 19:30N 33°36' W 118°40'610.8
2017-Dec-13 18:59N 33°37' W 118°47'511.2
2017-Dec-13 18:30N 33°37' W 118°54'612.0
2017-Dec-13 18:00N 33°37' W 119°01'610.9
2017-Dec-13 17:30N 33°37' W 119°07'510.7
2017-Dec-13 17:00N 33°38' W 119°14'4 8.6
2017-Dec-13 16:29N 33°38' W 119°19'3 5.3
2017-Dec-13 16:00N 33°38' W 119°22'918.5
2017-Dec-13 15:30N 33°38' W 119°33'1019.6
2017-Dec-13 14:59N 33°38' W 119°45'1019.2
2017-Dec-13 14:29N 33°38' W 119°57'919.2
2017-Dec-13 14:00N 33°38' W 120°08'1019.6
2017-Dec-13 13:30N 33°38' W 120°20'1019.5
2017-Dec-13 13:00N 33°38' W 120°31'1019.6
2017-Dec-13 12:30N 33°38' W 120°43'1019.3
2017-Dec-13 12:00N 33°38' W 120°55'1019.2
2017-Dec-13 11:30N 33°38' W 121°06'1019.6
2017-Dec-13 11:00N 33°38' W 121°18'1019.5
2017-Dec-13 10:30N 33°38' W 121°30'1019.3
2017-Dec-13 10:00N 33°38' W 121°41'1019.5
2017-Dec-13 09:31N 33°38' W 121°53'1019.7
2017-Dec-13 09:00N 33°38' W 122°05'1019.7
2017-Dec-13 08:30N 33°39' W 122°17'1019.8
2017-Dec-13 08:00N 33°39' W 122°28'1019.6
2017-Dec-13 07:30N 33°40' W 122°40'1019.3
2017-Dec-13 07:00N 33°41' W 122°52'1019.2
2017-Dec-13 06:30N 33°41' W 123°03'1019.3
2017-Dec-13 06:00N 33°42' W 123°15'1019.2
2017-Dec-13 05:30N 33°43' W 123°26'1019.4
2017-Dec-13 05:01N 33°44' W 123°38'1019.8
2017-Dec-13 04:30N 33°46' W 123°50'1019.9
2017-Dec-13 04:00N 33°47' W 124°02'1019.2
2017-Dec-13 03:30N 33°49' W 124°13'1019.3
2017-Dec-13 03:00N 33°51' W 124°24'1019.4
2017-Dec-13 02:30N 33°53' W 124°36'1020.0
2017-Dec-13 02:00N 33°55' W 124°48'1019.8
2017-Dec-13 01:30N 33°57' W 124°59'1019.8
2017-Dec-13 01:00N 33°59' W 125°11'1020.2
2017-Dec-13 00:30N 34°01' W 125°23'1019.8
2017-Dec-13 00:00N 34°03' W 125°34'1020.0
2017-Dec-12 23:30N 34°05' W 125°46'1019.8
2017-Dec-12 23:00N 34°07' W 125°58'1019.8
2017-Dec-12 22:30N 34°09' W 126°10'1019.7
2017-Dec-12 22:00N 34°12' W 126°21'1020.0
2017-Dec-12 21:30N 34°16' W 126°32'1019.7
2017-Dec-12 21:00N 34°19' W 126°44'1019.7
2017-Dec-12 20:30N 34°22' W 126°55'1019.8
2017-Dec-12 20:00N 34°26' W 127°06'1020.4
2017-Dec-12 19:31N 34°29' W 127°18'1020.0
2017-Dec-12 19:00N 34°33' W 127°29'1019.9
2017-Dec-12 18:30N 34°37' W 127°40'1020.1
2017-Dec-12 18:00N 34°40' W 127°52'1019.9
2017-Dec-12 17:30N 34°44' W 128°03'1019.7
2017-Dec-12 17:00N 34°47' W 128°14'1020.0
2017-Dec-12 16:30N 34°50' W 128°26'1020.1
2017-Dec-12 16:00N 34°54' W 128°37'1020.4
2017-Dec-12 15:30N 34°57' W 128°49'1020.4
2017-Dec-12 15:00N 35°01' W 129°00'1020.4
2017-Dec-12 14:30N 35°05' W 129°12'1020.5
2017-Dec-12 14:00N 35°08' W 129°24'1020.1
2017-Dec-12 13:30N 35°12' W 129°36'1020.5
2017-Dec-12 13:00N 35°15' W 129°47'34220.1
2017-Dec-11 20:00N 37°18' W 136°24'46920.4 180 / 211021.0 5.4 20.0 17.1
2017-Dec-10 21:00N 40°00' W 145°48'46220.1 320 / 281007.0 5.4 15.0 14.1
2017-Dec-09 22:00N 42°42' W 155°24'46520.2 320 / 31999.0 5.4 11.0 12.0
2017-Dec-08 23:00N 44°54' W 165°42'   320 / 35999.0 5.4 8.0 9.9
Track history (hours):
 
Tides and Currents Weather Stations Pressure Air Temp Water Temp Dewpoint Dewpoint Depression Visibility Wind Speed Wind Dir Waves Ship Positions

YM Eternity

Last reported at 2017-Dec-18 11:00 UTC. Time now 2017-Dec-18 11:09 UTC.
Position N 37°16' W 122°40'.

Length 269 m; draft 10.9 m.

Type: Cargo ship. MMSI: 636013699.

Date/timePositionNaut miles runAvg speedWind from/ knotsBaromVisibWave heightAir tempDewpointWater temp
2017-Dec-18 11:00N 37°16' W 122°40'816.3
2017-Dec-18 10:30N 37°08' W 122°38'816.5
2017-Dec-18 10:00N 37°00' W 122°36'816.6
2017-Dec-18 09:30N 36°52' W 122°33'816.8
2017-Dec-18 09:00N 36°44' W 122°29'816.8
2017-Dec-18 08:30N 36°36' W 122°26'816.9
2017-Dec-18 08:00N 36°29' W 122°22'817.0
2017-Dec-18 07:30N 36°21' W 122°18'816.9
2017-Dec-18 07:00N 36°13' W 122°14'917.1
2017-Dec-18 06:30N 36°05' W 122°09'816.9
2017-Dec-18 06:00N 35°57' W 122°05'816.9
2017-Dec-18 05:30N 35°50' W 121°59'816.8
2017-Dec-18 05:00N 35°43' W 121°54'816.7
2017-Dec-18 04:30N 35°36' W 121°48'917.1
2017-Dec-18 04:00N 35°29' W 121°42'917.0
2017-Dec-18 03:30N 35°22' W 121°37'917.1
2017-Dec-18 03:00N 35°15' W 121°31'816.7
2017-Dec-18 02:30N 35°08' W 121°25'816.8
2017-Dec-18 02:00N 35°01' W 121°20'816.6
2017-Dec-18 01:30N 34°54' W 121°14'816.8
2017-Dec-18 01:00N 34°47' W 121°09'816.7
2017-Dec-18 00:30N 34°40' W 121°03'816.3
2017-Dec-17 23:59N 34°33' W 120°57'816.6
2017-Dec-17 23:30N 34°26' W 120°51'816.3
2017-Dec-17 22:59N 34°24' W 120°42'816.3
2017-Dec-17 22:30N 34°22' W 120°32'816.4
2017-Dec-17 21:59N 34°19' W 120°23'817.1
2017-Dec-17 21:30N 34°17' W 120°13'817.2
2017-Dec-17 21:00N 34°15' W 120°03'917.4
2017-Dec-17 20:28N 34°12' W 119°52'817.9
2017-Dec-17 20:00N 34°10' W 119°42'1018.7
2017-Dec-17 19:29N 34°08' W 119°31'1018.7
2017-Dec-17 18:57N 34°05' W 119°20'918.3
2017-Dec-17 18:27N 34°01' W 119°09'817.1
2017-Dec-17 18:00N 33°57' W 119°01'611.8
2017-Dec-17 17:30N 33°55' W 118°55'611.9
2017-Dec-17 17:00N 33°52' W 118°49'611.7
2017-Dec-17 16:30N 33°49' W 118°43'611.8
2017-Dec-17 16:00N 33°46' W 118°37'611.7
2017-Dec-17 15:30N 33°43' W 118°30'611.7
2017-Dec-17 15:00N 33°40' W 118°24'611.6
2017-Dec-17 14:30N 33°38' W 118°18'7 0.3
2017-Dec-16 14:33N 33°46' W 118°17'0 0.0
2017-Dec-16 13:45N 33°46' W 118°17'0 0.0
2017-Dec-16 13:28N 33°46' W 118°17'0 0.0
2017-Dec-16 11:06N 33°46' W 118°17'0 0.1
2017-Dec-16 11:00N 33°46' W 118°17'0 0.0
2017-Dec-16 10:27N 33°46' W 118°17'0 0.0
2017-Dec-16 10:00N 33°46' W 118°17'0 0.0
2017-Dec-16 09:27N 33°46' W 118°17'0 0.0
2017-Dec-16 08:57N 33°46' W 118°17'0 0.0
2017-Dec-16 08:30N 33°46' W 118°17'0 0.0
2017-Dec-16 08:00N 33°46' W 118°17'0 0.0
2017-Dec-16 07:30N 33°46' W 118°17'0 0.0
2017-Dec-16 07:00N 33°46' W 118°17'0 0.0
2017-Dec-16 06:30N 33°46' W 118°17'0 0.0
2017-Dec-16 06:00N 33°46' W 118°17'0 0.0
2017-Dec-16 05:30N 33°46' W 118°17'0 0.0
2017-Dec-16 02:21N 33°46' W 118°17'0 0.0
2017-Dec-16 01:48N 33°46' W 118°17'0 0.0
2017-Dec-16 01:30N 33°46' W 118°17'0 0.0
2017-Dec-15 20:57N 33°46' W 118°17'0 0.0
2017-Dec-15 20:21N 33°46' W 118°17'0 0.0
2017-Dec-15 19:58N 33°46' W 118°17'0 0.0
2017-Dec-15 19:21N 33°46' W 118°17'0 0.0
2017-Dec-15 18:51N 33°46' W 118°17'0 0.0
2017-Dec-15 17:04N 33°46' W 118°17'0 0.0
2017-Dec-15 16:57N 33°46' W 118°17'0 0.0
2017-Dec-15 16:21N 33°46' W 118°17'0 0.0
2017-Dec-15 15:51N 33°46' W 118°17'0 0.0
2017-Dec-15 15:27N 33°46' W 118°17'0 0.0
2017-Dec-15 14:57N 33°46' W 118°17'0 0.0
2017-Dec-15 14:21N 33°46' W 118°17'0 0.0
2017-Dec-15 13:57N 33°46' W 118°17'0 0.0
2017-Dec-15 13:28N 33°46' W 118°17'0 0.0
2017-Dec-15 12:45N 33°46' W 118°17'0 0.0
2017-Dec-15 06:04N 33°46' W 118°17'0 0.0
2017-Dec-15 05:51N 33°46' W 118°17'0 0.0
2017-Dec-15 05:27N 33°46' W 118°17'0 0.0
2017-Dec-15 05:00N 33°46' W 118°17'0 0.0
2017-Dec-15 04:30N 33°46' W 118°17'0 0.0
2017-Dec-15 03:54N 33°46' W 118°17'0 0.0
2017-Dec-15 00:57N 33°46' W 118°17'0 0.0
2017-Dec-14 14:15N 33°46' W 118°17'0 0.0
2017-Dec-14 13:45N 33°46' W 118°17'0 0.0
2017-Dec-14 13:30N 33°46' W 118°17'0 0.0
2017-Dec-14 13:00N 33°46' W 118°17'0 0.0
2017-Dec-14 12:30N 33°46' W 118°17'0 0.0
2017-Dec-14 12:00N 33°46' W 118°17'0 0.0
2017-Dec-14 11:30N 33°46' W 118°17'0 0.0
2017-Dec-14 10:57N 33°46' W 118°17'0 0.0
2017-Dec-14 10:30N 33°46' W 118°17'0 0.0
2017-Dec-14 10:00N 33°46' W 118°17'0 0.0
2017-Dec-14 09:30N 33°46' W 118°17'0 0.0
2017-Dec-14 09:00N 33°46' W 118°17'0 0.0
2017-Dec-14 08:30N 33°46' W 118°17'0 0.0
2017-Dec-14 08:00N 33°46' W 118°17'0 0.0
2017-Dec-14 07:27N 33°46' W 118°17'0 0.0
2017-Dec-14 06:09N 33°46' W 118°17'0 0.0
2017-Dec-14 05:57N 33°46' W 118°17'0 0.0
2017-Dec-14 05:24N 33°46' W 118°17'0 0.0
2017-Dec-14 05:00N 33°46' W 118°17'0 0.0
2017-Dec-13 22:52N 33°46' W 118°17'1 3.5
2017-Dec-13 22:27N 33°44' W 118°17'3 5.9
2017-Dec-13 22:00N 33°42' W 118°15'4 7.6
2017-Dec-13 21:30N 33°38' W 118°16'5 9.6
2017-Dec-13 21:00N 33°36' W 118°21'511.0
2017-Dec-13 20:30N 33°36' W 118°27'510.9
2017-Dec-13 20:00N 33°36' W 118°34'510.8
2017-Dec-13 19:30N 33°36' W 118°40'610.8
2017-Dec-13 18:59N 33°37' W 118°47'511.2
2017-Dec-13 18:30N 33°37' W 118°54'612.0
2017-Dec-13 18:00N 33°37' W 119°01'610.9
2017-Dec-13 17:30N 33°37' W 119°07'510.7
2017-Dec-13 17:00N 33°38' W 119°14'4 8.6
2017-Dec-13 16:29N 33°38' W 119°19'3 5.3
2017-Dec-13 16:00N 33°38' W 119°22'918.5
2017-Dec-13 15:30N 33°38' W 119°33'1019.6
2017-Dec-13 14:59N 33°38' W 119°45'1019.2
2017-Dec-13 14:29N 33°38' W 119°57'919.2
2017-Dec-13 14:00N 33°38' W 120°08'1019.6
2017-Dec-13 13:30N 33°38' W 120°20'1019.5
2017-Dec-13 13:00N 33°38' W 120°31'1019.6
2017-Dec-13 12:30N 33°38' W 120°43'1019.3
2017-Dec-13 12:00N 33°38' W 120°55'1019.2
2017-Dec-13 11:30N 33°38' W 121°06'1019.6
2017-Dec-13 11:00N 33°38' W 121°18'1019.5
2017-Dec-13 10:30N 33°38' W 121°30'1019.3
2017-Dec-13 10:00N 33°38' W 121°41'1019.5
2017-Dec-13 09:31N 33°38' W 121°53'1019.7
2017-Dec-13 09:00N 33°38' W 122°05'1019.7
2017-Dec-13 08:30N 33°39' W 122°17'1019.8
2017-Dec-13 08:00N 33°39' W 122°28'1019.6
2017-Dec-13 07:30N 33°40' W 122°40'1019.3
2017-Dec-13 07:00N 33°41' W 122°52'1019.2
2017-Dec-13 06:30N 33°41' W 123°03'1019.3
2017-Dec-13 06:00N 33°42' W 123°15'1019.2
2017-Dec-13 05:30N 33°43' W 123°26'1019.4
2017-Dec-13 05:01N 33°44' W 123°38'1019.8
2017-Dec-13 04:30N 33°46' W 123°50'1019.9
2017-Dec-13 04:00N 33°47' W 124°02'1019.2
2017-Dec-13 03:30N 33°49' W 124°13'1019.3
2017-Dec-13 03:00N 33°51' W 124°24'1019.4
2017-Dec-13 02:30N 33°53' W 124°36'1020.0
2017-Dec-13 02:00N 33°55' W 124°48'1019.8
2017-Dec-13 01:30N 33°57' W 124°59'1019.8
2017-Dec-13 01:00N 33°59' W 125°11'1020.2
2017-Dec-13 00:30N 34°01' W 125°23'1019.8
2017-Dec-13 00:00N 34°03' W 125°34'1020.0
2017-Dec-12 23:30N 34°05' W 125°46'1019.8
2017-Dec-12 23:00N 34°07' W 125°58'1019.8
2017-Dec-12 22:30N 34°09' W 126°10'1019.7
2017-Dec-12 22:00N 34°12' W 126°21'1020.0
2017-Dec-12 21:30N 34°16' W 126°32'1019.7
2017-Dec-12 21:00N 34°19' W 126°44'1019.7
2017-Dec-12 20:30N 34°22' W 126°55'1019.8
2017-Dec-12 20:00N 34°26' W 127°06'1020.4
2017-Dec-12 19:31N 34°29' W 127°18'1020.0
2017-Dec-12 19:00N 34°33' W 127°29'1019.9
2017-Dec-12 18:30N 34°37' W 127°40'1020.1
2017-Dec-12 18:00N 34°40' W 127°52'1019.9
2017-Dec-12 17:30N 34°44' W 128°03'1019.7
2017-Dec-12 17:00N 34°47' W 128°14'1020.0
2017-Dec-12 16:30N 34°50' W 128°26'1020.1
2017-Dec-12 16:00N 34°54' W 128°37'1020.4
2017-Dec-12 15:30N 34°57' W 128°49'1020.4
2017-Dec-12 15:00N 35°01' W 129°00'1020.4
2017-Dec-12 14:30N 35°05' W 129°12'1020.5
2017-Dec-12 14:00N 35°08' W 129°24'1020.1
2017-Dec-12 13:30N 35°12' W 129°36'1020.5
2017-Dec-12 13:00N 35°15' W 129°47'34220.1
2017-Dec-11 20:00N 37°18' W 136°24'46920.4 180 / 211021.0 5.4 20.0 17.1
2017-Dec-10 21:00N 40°00' W 145°48'46220.1 320 / 281007.0 5.4 15.0 14.1
2017-Dec-09 22:00N 42°42' W 155°24'46520.2 320 / 31999.0 5.4 11.0 12.0
2017-Dec-08 23:00N 44°54' W 165°42'   320 / 35999.0 5.4 8.0 9.9

Dump ship's entire track history